sensor_id;sensor_type;location;lat;lon;timestamp;temperature;humidity
70107;DHT22;57473;37.508;15.080;2022-08-19T00:01:33;29.00;59.10
70107;DHT22;57473;37.508;15.080;2022-08-19T00:04:06;29.00;64.50
70107;DHT22;57473;37.508;15.080;2022-08-19T00:06:35;28.90;65.60
70107;DHT22;57473;37.508;15.080;2022-08-19T00:09:05;28.70;66.30
70107;DHT22;57473;37.508;15.080;2022-08-19T00:11:33;28.60;66.90
70107;DHT22;57473;37.508;15.080;2022-08-19T00:14:04;28.50;67.50
70107;DHT22;57473;37.508;15.080;2022-08-19T00:16:31;28.40;67.80
70107;DHT22;57473;37.508;15.080;2022-08-19T00:18:59;28.30;68.10
70107;DHT22;57473;37.508;15.080;2022-08-19T00:21:26;28.20;68.50
70107;DHT22;57473;37.508;15.080;2022-08-19T00:23:56;28.10;68.90
70107;DHT22;57473;37.508;15.080;2022-08-19T00:26:26;28.00;69.20
70107;DHT22;57473;37.508;15.080;2022-08-19T00:28:54;28.00;69.30
70107;DHT22;57473;37.508;15.080;2022-08-19T00:31:22;27.90;69.90
70107;DHT22;57473;37.508;15.080;2022-08-19T00:33:49;27.90;71.50
70107;DHT22;57473;37.508;15.080;2022-08-19T00:36:19;27.90;73.30
70107;DHT22;57473;37.508;15.080;2022-08-19T00:38:46;27.90;74.30
70107;DHT22;57473;37.508;15.080;2022-08-19T00:41:15;27.90;75.20
70107;DHT22;57473;37.508;15.080;2022-08-19T00:46:29;27.90;76.80
70107;DHT22;57473;37.508;15.080;2022-08-19T00:48:58;28.00;77.80
70107;DHT22;57473;37.508;15.080;2022-08-19T00:51:28;28.00;78.90
70107;DHT22;57473;37.508;15.080;2022-08-19T00:53:57;28.00;80.10
70107;DHT22;57473;37.508;15.080;2022-08-19T00:56:25;28.00;81.10
70107;DHT22;57473;37.508;15.080;2022-08-19T00:58:55;28.00;81.10
70107;DHT22;57473;37.508;15.080;2022-08-19T01:01:26;27.90;81.40
70107;DHT22;57473;37.508;15.080;2022-08-19T01:03:56;27.90;81.60
70107;DHT22;57473;37.508;15.080;2022-08-19T01:06:26;27.90;81.70
70107;DHT22;57473;37.508;15.080;2022-08-19T01:08:54;27.90;81.70
70107;DHT22;57473;37.508;15.080;2022-08-19T01:11:22;27.80;81.80
70107;DHT22;57473;37.508;15.080;2022-08-19T01:13:51;27.80;82.20
70107;DHT22;57473;37.508;15.080;2022-08-19T01:16:21;27.80;81.90
70107;DHT22;57473;37.508;15.080;2022-08-19T01:18:50;27.80;81.90
70107;DHT22;57473;37.508;15.080;2022-08-19T01:21:43;27.70;82.00
70107;DHT22;57473;37.508;15.080;2022-08-19T01:24:13;27.70;82.00
70107;DHT22;57473;37.508;15.080;2022-08-19T01:26:45;27.70;82.20
70107;DHT22;57473;37.508;15.080;2022-08-19T01:29:12;27.70;82.50
70107;DHT22;57473;37.508;15.080;2022-08-19T01:31:40;27.70;82.60
70107;DHT22;57473;37.508;15.080;2022-08-19T01:34:08;27.60;82.80
70107;DHT22;57473;37.508;15.080;2022-08-19T01:36:41;27.60;82.80
70107;DHT22;57473;37.508;15.080;2022-08-19T01:39:13;27.60;83.00
70107;DHT22;57473;37.508;15.080;2022-08-19T01:41:41;27.60;83.00
70107;DHT22;57473;37.508;15.080;2022-08-19T01:44:09;27.50;82.80
70107;DHT22;57473;37.508;15.080;2022-08-19T01:46:47;27.50;82.70
70107;DHT22;57473;37.508;15.080;2022-08-19T01:49:19;27.50;82.70
70107;DHT22;57473;37.508;15.080;2022-08-19T01:51:48;27.50;82.60
70107;DHT22;57473;37.508;15.080;2022-08-19T01:54:18;27.50;82.70
70107;DHT22;57473;37.508;15.080;2022-08-19T01:57:01;27.50;82.80
70107;DHT22;57473;37.508;15.080;2022-08-19T01:59:31;27.50;82.60
70107;DHT22;57473;37.508;15.080;2022-08-19T02:01:59;27.50;82.30
70107;DHT22;57473;37.508;15.080;2022-08-19T02:04:27;27.60;81.90
70107;DHT22;57473;37.508;15.080;2022-08-19T02:06:54;27.60;81.40
70107;DHT22;57473;37.508;15.080;2022-08-19T02:09:21;27.60;81.30
70107;DHT22;57473;37.508;15.080;2022-08-19T02:11:48;27.60;81.00
70107;DHT22;57473;37.508;15.080;2022-08-19T02:14:16;27.60;80.70
70107;DHT22;57473;37.508;15.080;2022-08-19T02:16:43;27.60;80.50
70107;DHT22;57473;37.508;15.080;2022-08-19T02:19:10;27.50;80.40
70107;DHT22;57473;37.508;15.080;2022-08-19T02:21:38;27.50;80.20
70107;DHT22;57473;37.508;15.080;2022-08-19T02:24:05;27.50;80.20
70107;DHT22;57473;37.508;15.080;2022-08-19T02:26:33;27.50;80.40
70107;DHT22;57473;37.508;15.080;2022-08-19T02:29:00;27.50;80.50
70107;DHT22;57473;37.508;15.080;2022-08-19T02:31:27;27.50;80.70
70107;DHT22;57473;37.508;15.080;2022-08-19T02:33:55;27.40;81.00
70107;DHT22;57473;37.508;15.080;2022-08-19T02:36:24;27.40;81.50
70107;DHT22;57473;37.508;15.080;2022-08-19T02:38:51;27.40;82.40
70107;DHT22;57473;37.508;15.080;2022-08-19T02:41:31;27.40;83.60
70107;DHT22;57473;37.508;15.080;2022-08-19T02:44:02;27.40;83.80
70107;DHT22;57473;37.508;15.080;2022-08-19T02:46:51;27.30;84.00
70107;DHT22;57473;37.508;15.080;2022-08-19T02:49:19;27.30;84.20
70107;DHT22;57473;37.508;15.080;2022-08-19T02:51:47;27.20;84.80
70107;DHT22;57473;37.508;15.080;2022-08-19T02:54:14;27.20;85.00
70107;DHT22;57473;37.508;15.080;2022-08-19T02:56:44;27.20;85.40
70107;DHT22;57473;37.508;15.080;2022-08-19T02:59:12;27.10;85.70
70107;DHT22;57473;37.508;15.080;2022-08-19T03:01:40;27.10;86.20
70107;DHT22;57473;37.508;15.080;2022-08-19T03:04:13;27.10;86.20
70107;DHT22;57473;37.508;15.080;2022-08-19T03:06:41;27.10;86.20
70107;DHT22;57473;37.508;15.080;2022-08-19T03:09:09;27.00;85.30
70107;DHT22;57473;37.508;15.080;2022-08-19T03:11:37;27.00;84.90
70107;DHT22;57473;37.508;15.080;2022-08-19T03:14:06;26.90;83.40
70107;DHT22;57473;37.508;15.080;2022-08-19T03:16:58;26.80;81.00
70107;DHT22;57473;37.508;15.080;2022-08-19T03:19:25;26.70;80.80
70107;DHT22;57473;37.508;15.080;2022-08-19T03:21:53;26.70;80.20
70107;DHT22;57473;37.508;15.080;2022-08-19T03:24:20;26.70;79.70
70107;DHT22;57473;37.508;15.080;2022-08-19T03:26:51;26.70;78.50
70107;DHT22;57473;37.508;15.080;2022-08-19T03:29:19;26.60;78.40
70107;DHT22;57473;37.508;15.080;2022-08-19T03:31:59;26.50;77.90
70107;DHT22;57473;37.508;15.080;2022-08-19T03:34:32;26.50;77.80
70107;DHT22;57473;37.508;15.080;2022-08-19T03:37:06;26.50;77.60
70107;DHT22;57473;37.508;15.080;2022-08-19T03:39:36;26.40;78.00
70107;DHT22;57473;37.508;15.080;2022-08-19T03:42:04;26.40;78.10
70107;DHT22;57473;37.508;15.080;2022-08-19T03:44:52;26.40;78.50
70107;DHT22;57473;37.508;15.080;2022-08-19T03:47:19;26.40;79.00
70107;DHT22;57473;37.508;15.080;2022-08-19T03:49:47;26.40;79.60
70107;DHT22;57473;37.508;15.080;2022-08-19T03:52:14;26.40;79.70
70107;DHT22;57473;37.508;15.080;2022-08-19T03:54:42;26.40;80.00
70107;DHT22;57473;37.508;15.080;2022-08-19T03:57:10;26.40;80.30
70107;DHT22;57473;37.508;15.080;2022-08-19T03:59:38;26.40;80.40
70107;DHT22;57473;37.508;15.080;2022-08-19T04:02:09;26.40;80.80
70107;DHT22;57473;37.508;15.080;2022-08-19T04:04:38;26.50;81.10
70107;DHT22;57473;37.508;15.080;2022-08-19T04:07:06;26.50;81.10
70107;DHT22;57473;37.508;15.080;2022-08-19T04:09:35;26.50;81.00
70107;DHT22;57473;37.508;15.080;2022-08-19T04:12:04;26.50;80.50
70107;DHT22;57473;37.508;15.080;2022-08-19T04:14:33;26.50;79.40
70107;DHT22;57473;37.508;15.080;2022-08-19T04:17:01;26.50;78.10
70107;DHT22;57473;37.508;15.080;2022-08-19T04:19:33;26.50;77.20
70107;DHT22;57473;37.508;15.080;2022-08-19T04:22:01;26.50;74.20
70107;DHT22;57473;37.508;15.080;2022-08-19T04:24:29;26.50;72.60
70107;DHT22;57473;37.508;15.080;2022-08-19T04:26:58;26.60;71.70
70107;DHT22;57473;37.508;15.080;2022-08-19T04:29:26;26.60;69.60
70107;DHT22;57473;37.508;15.080;2022-08-19T04:31:55;26.70;71.10
70107;DHT22;57473;37.508;15.080;2022-08-19T04:34:24;26.70;72.10
70107;DHT22;57473;37.508;15.080;2022-08-19T04:36:53;26.80;73.70
70107;DHT22;57473;37.508;15.080;2022-08-19T04:39:25;26.90;72.70
70107;DHT22;57473;37.508;15.080;2022-08-19T04:42:12;26.90;72.50
70107;DHT22;57473;37.508;15.080;2022-08-19T04:44:58;26.90;73.00
70107;DHT22;57473;37.508;15.080;2022-08-19T04:47:26;27.00;74.00
70107;DHT22;57473;37.508;15.080;2022-08-19T04:50:14;27.00;74.40
70107;DHT22;57473;37.508;15.080;2022-08-19T04:52:44;27.00;74.60
70107;DHT22;57473;37.508;15.080;2022-08-19T04:55:12;27.00;75.20
70107;DHT22;57473;37.508;15.080;2022-08-19T04:57:40;26.90;75.40
70107;DHT22;57473;37.508;15.080;2022-08-19T05:00:09;26.90;75.60
70107;DHT22;57473;37.508;15.080;2022-08-19T05:02:37;26.90;76.50
70107;DHT22;57473;37.508;15.080;2022-08-19T05:05:05;27.00;77.60
70107;DHT22;57473;37.508;15.080;2022-08-19T05:07:34;27.10;77.90
70107;DHT22;57473;37.508;15.080;2022-08-19T05:10:03;27.10;77.70
70107;DHT22;57473;37.508;15.080;2022-08-19T05:12:31;27.20;77.60
70107;DHT22;57473;37.508;15.080;2022-08-19T05:14:59;27.30;77.70
70107;DHT22;57473;37.508;15.080;2022-08-19T05:17:27;27.40;77.60
70107;DHT22;57473;37.508;15.080;2022-08-19T05:20:03;27.50;77.70
70107;DHT22;57473;37.508;15.080;2022-08-19T05:22:49;27.60;77.50
70107;DHT22;57473;37.508;15.080;2022-08-19T05:25:19;27.70;77.20
70107;DHT22;57473;37.508;15.080;2022-08-19T05:27:47;27.80;76.90
70107;DHT22;57473;37.508;15.080;2022-08-19T05:30:16;27.90;76.60
70107;DHT22;57473;37.508;15.080;2022-08-19T05:32:44;28.00;76.30
70107;DHT22;57473;37.508;15.080;2022-08-19T05:35:11;28.10;76.10
70107;DHT22;57473;37.508;15.080;2022-08-19T05:37:39;28.10;75.70
70107;DHT22;57473;37.508;15.080;2022-08-19T05:40:08;28.30;75.30
70107;DHT22;57473;37.508;15.080;2022-08-19T05:42:36;28.40;75.40
70107;DHT22;57473;37.508;15.080;2022-08-19T05:45:04;28.40;75.40
70107;DHT22;57473;37.508;15.080;2022-08-19T05:47:32;28.50;75.50
70107;DHT22;57473;37.508;15.080;2022-08-19T05:49:59;28.60;75.50
70107;DHT22;57473;37.508;15.080;2022-08-19T05:52:30;28.70;75.10
70107;DHT22;57473;37.508;15.080;2022-08-19T05:54:59;28.80;74.80
70107;DHT22;57473;37.508;15.080;2022-08-19T05:57:26;28.80;74.20
70107;DHT22;57473;37.508;15.080;2022-08-19T05:59:56;28.90;73.50
70107;DHT22;57473;37.508;15.080;2022-08-19T06:02:26;28.90;72.70
70107;DHT22;57473;37.508;15.080;2022-08-19T06:04:54;29.00;72.60
70107;DHT22;57473;37.508;15.080;2022-08-19T06:07:21;29.10;71.80
70107;DHT22;57473;37.508;15.080;2022-08-19T06:09:49;29.20;71.30
70107;DHT22;57473;37.508;15.080;2022-08-19T06:12:32;29.20;69.60
70107;DHT22;57473;37.508;15.080;2022-08-19T06:15:09;29.30;70.00
70107;DHT22;57473;37.508;15.080;2022-08-19T06:17:37;29.50;67.00
70107;DHT22;57473;37.508;15.080;2022-08-19T06:20:07;29.50;66.20
70107;DHT22;57473;37.508;15.080;2022-08-19T06:22:46;29.70;64.70
70107;DHT22;57473;37.508;15.080;2022-08-19T06:25:16;29.80;64.80
70107;DHT22;57473;37.508;15.080;2022-08-19T06:27:46;29.90;63.60
70107;DHT22;57473;37.508;15.080;2022-08-19T06:30:33;30.10;62.90
70107;DHT22;57473;37.508;15.080;2022-08-19T06:33:00;30.10;63.10
70107;DHT22;57473;37.508;15.080;2022-08-19T06:35:28;30.20;63.30
70107;DHT22;57473;37.508;15.080;2022-08-19T06:37:56;30.30;63.20
70107;DHT22;57473;37.508;15.080;2022-08-19T06:40:23;30.40;64.00
70107;DHT22;57473;37.508;15.080;2022-08-19T06:42:51;30.50;63.80
70107;DHT22;57473;37.508;15.080;2022-08-19T06:45:23;30.60;64.50
70107;DHT22;57473;37.508;15.080;2022-08-19T06:48:02;30.70;64.30
70107;DHT22;57473;37.508;15.080;2022-08-19T06:50:29;30.90;64.10
70107;DHT22;57473;37.508;15.080;2022-08-19T06:52:56;31.00;63.70
70107;DHT22;57473;37.508;15.080;2022-08-19T06:55:30;31.10;63.20
70107;DHT22;57473;37.508;15.080;2022-08-19T06:58:02;31.10;63.30
70107;DHT22;57473;37.508;15.080;2022-08-19T07:00:32;31.20;63.30
70107;DHT22;57473;37.508;15.080;2022-08-19T07:02:59;31.20;63.50
70107;DHT22;57473;37.508;15.080;2022-08-19T07:05:41;31.20;63.70
70107;DHT22;57473;37.508;15.080;2022-08-19T07:08:12;31.20;64.50
70107;DHT22;57473;37.508;15.080;2022-08-19T07:10:43;31.30;64.60
70107;DHT22;57473;37.508;15.080;2022-08-19T07:13:11;31.30;65.70
70107;DHT22;57473;37.508;15.080;2022-08-19T07:15:38;31.40;64.20
70107;DHT22;57473;37.508;15.080;2022-08-19T07:18:06;31.40;64.40
70107;DHT22;57473;37.508;15.080;2022-08-19T07:20:37;31.40;64.70
70107;DHT22;57473;37.508;15.080;2022-08-19T07:23:08;31.50;64.50
70107;DHT22;57473;37.508;15.080;2022-08-19T07:25:37;31.60;64.50
70107;DHT22;57473;37.508;15.080;2022-08-19T07:28:07;31.60;65.00
70107;DHT22;57473;37.508;15.080;2022-08-19T07:30:49;31.60;65.00
70107;DHT22;57473;37.508;15.080;2022-08-19T07:33:18;31.60;65.20
70107;DHT22;57473;37.508;15.080;2022-08-19T07:35:46;31.50;66.40
70107;DHT22;57473;37.508;15.080;2022-08-19T07:38:13;31.40;67.10
70107;DHT22;57473;37.508;15.080;2022-08-19T07:40:44;31.10;67.80
70107;DHT22;57473;37.508;15.080;2022-08-19T07:43:13;31.20;67.50
70107;DHT22;57473;37.508;15.080;2022-08-19T07:45:44;31.50;65.90
70107;DHT22;57473;37.508;15.080;2022-08-19T07:48:11;31.70;65.80
70107;DHT22;57473;37.508;15.080;2022-08-19T07:50:38;31.90;65.00
70107;DHT22;57473;37.508;15.080;2022-08-19T07:53:06;31.90;65.10
70107;DHT22;57473;37.508;15.080;2022-08-19T07:55:33;32.10;65.90
70107;DHT22;57473;37.508;15.080;2022-08-19T07:58:09;32.10;65.90
70107;DHT22;57473;37.508;15.080;2022-08-19T08:00:36;32.20;66.00
70107;DHT22;57473;37.508;15.080;2022-08-19T08:03:04;32.40;65.30
70107;DHT22;57473;37.508;15.080;2022-08-19T08:05:31;32.60;63.90
70107;DHT22;57473;37.508;15.080;2022-08-19T08:08:17;32.70;63.70
70107;DHT22;57473;37.508;15.080;2022-08-19T08:11:11;32.50;64.00
70107;DHT22;57473;37.508;15.080;2022-08-19T08:13:42;32.20;64.80
70107;DHT22;57473;37.508;15.080;2022-08-19T08:16:10;32.20;64.50
70107;DHT22;57473;37.508;15.080;2022-08-19T08:18:40;32.30;64.00
70107;DHT22;57473;37.508;15.080;2022-08-19T08:21:16;32.40;64.00
70107;DHT22;57473;37.508;15.080;2022-08-19T08:23:44;32.40;63.40
70107;DHT22;57473;37.508;15.080;2022-08-19T08:26:11;32.50;63.30
70107;DHT22;57473;37.508;15.080;2022-08-19T08:28:41;32.60;62.90
70107;DHT22;57473;37.508;15.080;2022-08-19T08:31:14;32.60;62.80
70107;DHT22;57473;37.508;15.080;2022-08-19T08:33:41;32.60;63.10
70107;DHT22;57473;37.508;15.080;2022-08-19T08:36:09;32.90;63.10
70107;DHT22;57473;37.508;15.080;2022-08-19T08:38:38;33.20;61.60
70107;DHT22;57473;37.508;15.080;2022-08-19T08:41:37;33.50;60.60
70107;DHT22;57473;37.508;15.080;2022-08-19T08:44:15;33.60;59.30
70107;DHT22;57473;37.508;15.080;2022-08-19T08:46:57;33.70;59.50
70107;DHT22;57473;37.508;15.080;2022-08-19T08:52:13;33.90;59.20
70107;DHT22;57473;37.508;15.080;2022-08-19T08:54:46;34.10;59.40
70107;DHT22;57473;37.508;15.080;2022-08-19T08:57:35;34.20;58.50
70107;DHT22;57473;37.508;15.080;2022-08-19T09:03:00;34.10;58.60
70107;DHT22;57473;37.508;15.080;2022-08-19T09:05:36;34.10;59.20
70107;DHT22;57473;37.508;15.080;2022-08-19T09:08:45;34.10;59.40
70107;DHT22;57473;37.508;15.080;2022-08-19T09:14:36;33.90;60.40
70107;DHT22;57473;37.508;15.080;2022-08-19T09:17:20;34.00;59.00
70107;DHT22;57473;37.508;15.080;2022-08-19T09:19:59;33.70;59.20
70107;DHT22;57473;37.508;15.080;2022-08-19T09:22:31;33.60;60.00
70107;DHT22;57473;37.508;15.080;2022-08-19T09:24:59;33.60;59.80
70107;DHT22;57473;37.508;15.080;2022-08-19T09:27:29;33.70;59.30
70107;DHT22;57473;37.508;15.080;2022-08-19T09:30:30;33.80;60.20
70107;DHT22;57473;37.508;15.080;2022-08-19T09:32:59;33.80;60.60
70107;DHT22;57473;37.508;15.080;2022-08-19T09:35:29;34.00;60.40
70107;DHT22;57473;37.508;15.080;2022-08-19T09:37:58;33.90;60.50
70107;DHT22;57473;37.508;15.080;2022-08-19T09:40:30;33.80;61.70
70107;DHT22;57473;37.508;15.080;2022-08-19T09:43:03;33.60;62.70
70107;DHT22;57473;37.508;15.080;2022-08-19T09:45:39;33.30;63.90
70107;DHT22;57473;37.508;15.080;2022-08-19T09:48:07;33.50;63.40
70107;DHT22;57473;37.508;15.080;2022-08-19T09:50:37;33.90;61.90
70107;DHT22;57473;37.508;15.080;2022-08-19T09:53:18;34.10;61.60
70107;DHT22;57473;37.508;15.080;2022-08-19T09:55:46;33.90;62.10
70107;DHT22;57473;37.508;15.080;2022-08-19T09:58:13;34.20;61.20
70107;DHT22;57473;37.508;15.080;2022-08-19T10:00:40;34.20;61.50
70107;DHT22;57473;37.508;15.080;2022-08-19T10:03:08;33.90;62.30
70107;DHT22;57473;37.508;15.080;2022-08-19T10:05:36;34.00;61.80
70107;DHT22;57473;37.508;15.080;2022-08-19T10:08:24;34.20;61.30
70107;DHT22;57473;37.508;15.080;2022-08-19T10:10:54;34.50;60.80
70107;DHT22;57473;37.508;15.080;2022-08-19T10:13:27;34.70;60.20
70107;DHT22;57473;37.508;15.080;2022-08-19T10:16:02;34.50;59.00
70107;DHT22;57473;37.508;15.080;2022-08-19T10:18:30;34.40;60.10
70107;DHT22;57473;37.508;15.080;2022-08-19T10:21:09;34.10;60.90
70107;DHT22;57473;37.508;15.080;2022-08-19T10:23:40;34.00;61.20
70107;DHT22;57473;37.508;15.080;2022-08-19T10:26:14;33.80;61.60
70107;DHT22;57473;37.508;15.080;2022-08-19T10:28:44;33.80;61.30
70107;DHT22;57473;37.508;15.080;2022-08-19T10:31:17;33.90;61.30
70107;DHT22;57473;37.508;15.080;2022-08-19T10:34:06;34.00;60.60
70107;DHT22;57473;37.508;15.080;2022-08-19T10:36:53;33.70;61.60
70107;DHT22;57473;37.508;15.080;2022-08-19T10:39:27;33.40;61.80
70107;DHT22;57473;37.508;15.080;2022-08-19T10:42:09;33.50;62.30
70107;DHT22;57473;37.508;15.080;2022-08-19T10:44:37;33.40;62.00
70107;DHT22;57473;37.508;15.080;2022-08-19T10:47:05;33.60;61.20
70107;DHT22;57473;37.508;15.080;2022-08-19T10:49:54;33.70;61.00
70107;DHT22;57473;37.508;15.080;2022-08-19T10:52:44;33.80;59.70
70107;DHT22;57473;37.508;15.080;2022-08-19T10:55:21;33.70;59.70
70107;DHT22;57473;37.508;15.080;2022-08-19T10:58:16;34.00;59.40
70107;DHT22;57473;37.508;15.080;2022-08-19T11:00:56;34.30;60.30
70107;DHT22;57473;37.508;15.080;2022-08-19T11:03:25;34.40;60.30
70107;DHT22;57473;37.508;15.080;2022-08-19T11:06:04;34.30;60.80
70107;DHT22;57473;37.508;15.080;2022-08-19T11:08:32;34.30;60.70
70107;DHT22;57473;37.508;15.080;2022-08-19T11:11:01;34.30;60.70
70107;DHT22;57473;37.508;15.080;2022-08-19T11:13:31;34.40;60.50
70107;DHT22;57473;37.508;15.080;2022-08-19T11:16:03;34.40;60.10
70107;DHT22;57473;37.508;15.080;2022-08-19T11:18:38;34.90;59.50
70107;DHT22;57473;37.508;15.080;2022-08-19T11:21:27;35.00;59.10
70107;DHT22;57473;37.508;15.080;2022-08-19T11:23:57;35.20;58.10
70107;DHT22;57473;37.508;15.080;2022-08-19T11:26:27;35.60;57.10
70107;DHT22;57473;37.508;15.080;2022-08-19T11:28:55;35.70;56.80
70107;DHT22;57473;37.508;15.080;2022-08-19T11:31:29;35.90;55.80
70107;DHT22;57473;37.508;15.080;2022-08-19T11:33:58;36.30;55.00
70107;DHT22;57473;37.508;15.080;2022-08-19T11:36:27;36.50;54.60
70107;DHT22;57473;37.508;15.080;2022-08-19T11:38:55;36.10;54.30
70107;DHT22;57473;37.508;15.080;2022-08-19T11:41:23;35.80;55.30
70107;DHT22;57473;37.508;15.080;2022-08-19T11:43:52;36.20;54.80
70107;DHT22;57473;37.508;15.080;2022-08-19T11:46:24;36.50;53.80
70107;DHT22;57473;37.508;15.080;2022-08-19T11:48:52;36.80;52.50
70107;DHT22;57473;37.508;15.080;2022-08-19T11:51:22;37.00;52.70
70107;DHT22;57473;37.508;15.080;2022-08-19T11:53:55;36.90;52.60
70107;DHT22;57473;37.508;15.080;2022-08-19T11:56:24;36.80;52.60
70107;DHT22;57473;37.508;15.080;2022-08-19T11:58:53;36.60;52.90
70107;DHT22;57473;37.508;15.080;2022-08-19T12:01:25;36.20;54.30
70107;DHT22;57473;37.508;15.080;2022-08-19T12:03:54;36.10;54.60
70107;DHT22;57473;37.508;15.080;2022-08-19T12:06:25;36.40;53.90
70107;DHT22;57473;37.508;15.080;2022-08-19T12:09:05;36.80;53.10
70107;DHT22;57473;37.508;15.080;2022-08-19T12:11:33;37.00;53.40
70107;DHT22;57473;37.508;15.080;2022-08-19T12:14:00;36.80;53.60
70107;DHT22;57473;37.508;15.080;2022-08-19T12:16:29;36.30;54.60
70107;DHT22;57473;37.508;15.080;2022-08-19T12:19:00;36.30;54.50
70107;DHT22;57473;37.508;15.080;2022-08-19T12:21:32;36.60;54.00
70107;DHT22;57473;37.508;15.080;2022-08-19T12:24:01;37.30;51.90
70107;DHT22;57473;37.508;15.080;2022-08-19T12:26:29;37.10;52.50
70107;DHT22;57473;37.508;15.080;2022-08-19T12:29:02;36.70;53.70
70107;DHT22;57473;37.508;15.080;2022-08-19T12:31:33;37.00;53.30
70107;DHT22;57473;37.508;15.080;2022-08-19T12:34:00;37.50;52.30
70107;DHT22;57473;37.508;15.080;2022-08-19T12:36:29;37.40;52.50
70107;DHT22;57473;37.508;15.080;2022-08-19T12:38:58;37.40;52.00
70107;DHT22;57473;37.508;15.080;2022-08-19T12:41:26;37.30;52.60
70107;DHT22;57473;37.508;15.080;2022-08-19T12:43:54;37.40;52.40
70107;DHT22;57473;37.508;15.080;2022-08-19T12:46:39;37.40;52.40
70107;DHT22;57473;37.508;15.080;2022-08-19T12:49:09;37.20;52.80
70107;DHT22;57473;37.508;15.080;2022-08-19T12:51:57;37.30;52.60
70107;DHT22;57473;37.508;15.080;2022-08-19T12:54:25;37.50;52.30
70107;DHT22;57473;37.508;15.080;2022-08-19T12:56:52;37.60;52.00
70107;DHT22;57473;37.508;15.080;2022-08-19T12:59:20;37.60;52.10
70107;DHT22;57473;37.508;15.080;2022-08-19T13:01:47;38.00;51.10
70107;DHT22;57473;37.508;15.080;2022-08-19T13:04:15;38.20;50.70
70107;DHT22;57473;37.508;15.080;2022-08-19T13:06:43;38.50;49.60
70107;DHT22;57473;37.508;15.080;2022-08-19T13:09:10;37.90;50.80
70107;DHT22;57473;37.508;15.080;2022-08-19T13:11:38;38.00;50.90
70107;DHT22;57473;37.508;15.080;2022-08-19T13:14:05;37.80;51.60
70107;DHT22;57473;37.508;15.080;2022-08-19T13:16:33;37.60;52.20
70107;DHT22;57473;37.508;15.080;2022-08-19T13:19:00;37.20;53.40
70107;DHT22;57473;37.508;15.080;2022-08-19T13:21:30;36.60;54.60
70107;DHT22;57473;37.508;15.080;2022-08-19T13:23:57;36.30;55.70
70107;DHT22;57473;37.508;15.080;2022-08-19T13:26:25;36.00;56.70
70107;DHT22;57473;37.508;15.080;2022-08-19T13:28:52;36.00;56.90
70107;DHT22;57473;37.508;15.080;2022-08-19T13:31:40;36.00;57.40
70107;DHT22;57473;37.508;15.080;2022-08-19T13:34:34;36.10;57.40
70107;DHT22;57473;37.508;15.080;2022-08-19T13:37:04;36.70;55.50
70107;DHT22;57473;37.508;15.080;2022-08-19T13:39:32;37.00;54.60
70107;DHT22;57473;37.508;15.080;2022-08-19T13:42:00;37.00;54.60
70107;DHT22;57473;37.508;15.080;2022-08-19T13:44:28;36.90;54.80
70107;DHT22;57473;37.508;15.080;2022-08-19T13:47:04;36.70;55.20
70107;DHT22;57473;37.508;15.080;2022-08-19T13:49:35;36.30;56.00
70107;DHT22;57473;37.508;15.080;2022-08-19T13:52:04;35.90;57.20
70107;DHT22;57473;37.508;15.080;2022-08-19T13:54:32;35.30;59.00
70107;DHT22;57473;37.508;15.080;2022-08-19T13:57:00;34.80;61.10
70107;DHT22;57473;37.508;15.080;2022-08-19T13:59:27;34.40;62.20
70107;DHT22;57473;37.508;15.080;2022-08-19T14:01:58;34.60;61.40
70107;DHT22;57473;37.508;15.080;2022-08-19T14:04:26;34.70;61.30
70107;DHT22;57473;37.508;15.080;2022-08-19T14:06:53;35.10;59.90
70107;DHT22;57473;37.508;15.080;2022-08-19T14:09:21;35.20;59.80
70107;DHT22;57473;37.508;15.080;2022-08-19T14:11:49;35.40;59.30
70107;DHT22;57473;37.508;15.080;2022-08-19T14:14:17;35.20;59.40
70107;DHT22;57473;37.508;15.080;2022-08-19T14:16:45;35.00;59.80
70107;DHT22;57473;37.508;15.080;2022-08-19T14:19:12;34.80;60.70
70107;DHT22;57473;37.508;15.080;2022-08-19T14:21:41;34.60;62.20
70107;DHT22;57473;37.508;15.080;2022-08-19T14:24:09;34.30;62.50
70107;DHT22;57473;37.508;15.080;2022-08-19T14:26:37;34.30;62.50
70107;DHT22;57473;37.508;15.080;2022-08-19T14:29:05;34.50;62.30
70107;DHT22;57473;37.508;15.080;2022-08-19T14:31:32;34.00;63.30
70107;DHT22;57473;37.508;15.080;2022-08-19T14:33:59;33.70;64.20
70107;DHT22;57473;37.508;15.080;2022-08-19T14:36:27;33.50;64.60
70107;DHT22;57473;37.508;15.080;2022-08-19T14:38:54;33.50;64.50
70107;DHT22;57473;37.508;15.080;2022-08-19T14:41:23;33.60;64.10
70107;DHT22;57473;37.508;15.080;2022-08-19T14:43:51;33.60;64.10
70107;DHT22;57473;37.508;15.080;2022-08-19T14:46:24;33.60;64.10
70107;DHT22;57473;37.508;15.080;2022-08-19T14:48:55;33.50;65.50
70107;DHT22;57473;37.508;15.080;2022-08-19T14:51:26;33.30;66.70
70107;DHT22;57473;37.508;15.080;2022-08-19T14:53:54;33.20;66.50
70107;DHT22;57473;37.508;15.080;2022-08-19T14:56:24;33.10;67.20
70107;DHT22;57473;37.508;15.080;2022-08-19T14:58:52;32.70;68.40
70107;DHT22;57473;37.508;15.080;2022-08-19T15:01:21;32.60;68.30
70107;DHT22;57473;37.508;15.080;2022-08-19T15:03:52;32.50;68.20
70107;DHT22;57473;37.508;15.080;2022-08-19T15:06:23;32.40;68.70
70107;DHT22;57473;37.508;15.080;2022-08-19T15:08:51;32.20;70.30
70107;DHT22;57473;37.508;15.080;2022-08-19T15:11:20;32.00;70.70
70107;DHT22;57473;37.508;15.080;2022-08-19T15:13:48;31.80;71.50
70107;DHT22;57473;37.508;15.080;2022-08-19T15:16:17;31.60;72.50
70107;DHT22;57473;37.508;15.080;2022-08-19T15:18:46;31.60;73.10
70107;DHT22;57473;37.508;15.080;2022-08-19T15:21:17;31.70;72.80
70107;DHT22;57473;37.508;15.080;2022-08-19T15:23:55;31.90;72.40
70107;DHT22;57473;37.508;15.080;2022-08-19T15:26:23;32.30;69.70
70107;DHT22;57473;37.508;15.080;2022-08-19T15:28:51;32.40;69.00
70107;DHT22;57473;37.508;15.080;2022-08-19T15:31:20;32.30;69.50
70107;DHT22;57473;37.508;15.080;2022-08-19T15:33:56;32.20;69.00
70107;DHT22;57473;37.508;15.080;2022-08-19T15:36:25;32.30;67.80
70107;DHT22;57473;37.508;15.080;2022-08-19T15:38:54;32.40;68.20
70107;DHT22;57473;37.508;15.080;2022-08-19T15:41:25;32.40;68.20
70107;DHT22;57473;37.508;15.080;2022-08-19T15:46:24;32.70;68.10
70107;DHT22;57473;37.508;15.080;2022-08-19T15:48:52;32.70;67.60
70107;DHT22;57473;37.508;15.080;2022-08-19T15:51:28;32.60;67.40
70107;DHT22;57473;37.508;15.080;2022-08-19T15:53:58;32.50;66.60